sensor_id;sensor_type;location;lat;lon;timestamp;temperature;humidity
22035;DHT22;11181;51.002;4.356;2023-02-03T00:01:59;10.70;99.90
22035;DHT22;11181;51.002;4.356;2023-02-03T00:04:27;10.80;99.90
22035;DHT22;11181;51.002;4.356;2023-02-03T00:06:55;10.80;99.90
22035;DHT22;11181;51.002;4.356;2023-02-03T00:09:22;10.70;99.90
22035;DHT22;11181;51.002;4.356;2023-02-03T00:11:49;10.70;99.90
22035;DHT22;11181;51.002;4.356;2023-02-03T00:14:16;10.70;99.90
22035;DHT22;11181;51.002;4.356;2023-02-03T00:16:43;10.70;99.90
22035;DHT22;11181;51.002;4.356;2023-02-03T00:19:10;10.70;99.90
22035;DHT22;11181;51.002;4.356;2023-02-03T00:21:38;10.70;99.90
22035;DHT22;11181;51.002;4.356;2023-02-03T00:24:05;10.70;99.90
22035;DHT22;11181;51.002;4.356;2023-02-03T00:26:33;10.70;99.90
22035;DHT22;11181;51.002;4.356;2023-02-03T00:29:00;10.70;99.90
22035;DHT22;11181;51.002;4.356;2023-02-03T00:31:26;10.70;99.90
22035;DHT22;11181;51.002;4.356;2023-02-03T00:33:54;10.70;99.90
22035;DHT22;11181;51.002;4.356;2023-02-03T00:36:21;10.70;99.90
22035;DHT22;11181;51.002;4.356;2023-02-03T00:38:50;10.60;99.90
22035;DHT22;11181;51.002;4.356;2023-02-03T00:41:17;10.60;99.90
22035;DHT22;11181;51.002;4.356;2023-02-03T00:43:44;10.60;99.90
22035;DHT22;11181;51.002;4.356;2023-02-03T00:46:11;10.70;99.90
22035;DHT22;11181;51.002;4.356;2023-02-03T00:48:38;10.70;99.90
22035;DHT22;11181;51.002;4.356;2023-02-03T00:51:06;10.80;99.90
22035;DHT22;11181;51.002;4.356;2023-02-03T00:53:32;10.70;99.90
22035;DHT22;11181;51.002;4.356;2023-02-03T00:56:01;10.60;99.90
22035;DHT22;11181;51.002;4.356;2023-02-03T00:58:28;10.60;99.90
22035;DHT22;11181;51.002;4.356;2023-02-03T01:00:55;10.60;99.90
22035;DHT22;11181;51.002;4.356;2023-02-03T01:03:22;10.60;99.90
22035;DHT22;11181;51.002;4.356;2023-02-03T01:05:49;10.70;99.90
22035;DHT22;11181;51.002;4.356;2023-02-03T01:08:16;10.60;99.90
22035;DHT22;11181;51.002;4.356;2023-02-03T01:10:43;10.60;99.90
22035;DHT22;11181;51.002;4.356;2023-02-03T01:13:11;10.70;99.90
22035;DHT22;11181;51.002;4.356;2023-02-03T01:15:44;10.70;99.90
22035;DHT22;11181;51.002;4.356;2023-02-03T01:18:11;10.70;99.90
22035;DHT22;11181;51.002;4.356;2023-02-03T01:20:38;10.60;99.90
22035;DHT22;11181;51.002;4.356;2023-02-03T01:23:05;10.60;99.90
22035;DHT22;11181;51.002;4.356;2023-02-03T01:25:34;10.70;99.90
22035;DHT22;11181;51.002;4.356;2023-02-03T01:28:01;10.60;99.90
22035;DHT22;11181;51.002;4.356;2023-02-03T01:30:29;10.70;99.90
22035;DHT22;11181;51.002;4.356;2023-02-03T01:32:56;10.70;99.90
22035;DHT22;11181;51.002;4.356;2023-02-03T01:35:23;10.70;99.90
22035;DHT22;11181;51.002;4.356;2023-02-03T01:37:50;10.80;99.90
22035;DHT22;11181;51.002;4.356;2023-02-03T01:40:17;10.70;99.90
22035;DHT22;11181;51.002;4.356;2023-02-03T01:42:44;10.70;99.90
22035;DHT22;11181;51.002;4.356;2023-02-03T01:45:11;10.80;99.90
22035;DHT22;11181;51.002;4.356;2023-02-03T01:47:43;10.80;99.90
22035;DHT22;11181;51.002;4.356;2023-02-03T01:50:14;10.80;99.90
22035;DHT22;11181;51.002;4.356;2023-02-03T01:52:45;10.80;99.90
22035;DHT22;11181;51.002;4.356;2023-02-03T01:55:16;10.80;99.90
22035;DHT22;11181;51.002;4.356;2023-02-03T01:57:48;10.80;99.90
22035;DHT22;11181;51.002;4.356;2023-02-03T02:00:17;10.80;99.90
22035;DHT22;11181;51.002;4.356;2023-02-03T02:02:47;10.80;99.90
22035;DHT22;11181;51.002;4.356;2023-02-03T02:05:19;10.80;99.90
22035;DHT22;11181;51.002;4.356;2023-02-03T02:07:48;10.70;99.90
22035;DHT22;11181;51.002;4.356;2023-02-03T02:10:16;10.80;99.90
22035;DHT22;11181;51.002;4.356;2023-02-03T02:12:43;10.70;99.90
22035;DHT22;11181;51.002;4.356;2023-02-03T02:15:10;10.70;99.90
22035;DHT22;11181;51.002;4.356;2023-02-03T02:18:11;10.70;99.90
22035;DHT22;11181;51.002;4.356;2023-02-03T02:21:11;10.70;99.90
22035;DHT22;11181;51.002;4.356;2023-02-03T02:23:58;10.70;99.90
22035;DHT22;11181;51.002;4.356;2023-02-03T02:26:48;10.70;99.90
22035;DHT22;11181;51.002;4.356;2023-02-03T02:32:24;10.70;99.90
22035;DHT22;11181;51.002;4.356;2023-02-03T02:35:00;10.70;99.90
22035;DHT22;11181;51.002;4.356;2023-02-03T02:37:36;10.70;99.90
22035;DHT22;11181;51.002;4.356;2023-02-03T02:40:10;10.80;99.90
22035;DHT22;11181;51.002;4.356;2023-02-03T02:42:50;10.80;99.90
22035;DHT22;11181;51.002;4.356;2023-02-03T02:45:24;10.70;99.90
22035;DHT22;11181;51.002;4.356;2023-02-03T02:47:58;10.70;99.90
22035;DHT22;11181;51.002;4.356;2023-02-03T02:50:27;10.70;99.90
22035;DHT22;11181;51.002;4.356;2023-02-03T02:52:56;10.80;99.90
22035;DHT22;11181;51.002;4.356;2023-02-03T02:55:26;10.70;99.90
22035;DHT22;11181;51.002;4.356;2023-02-03T02:57:57;10.70;99.90
22035;DHT22;11181;51.002;4.356;2023-02-03T03:00:29;10.70;99.90
22035;DHT22;11181;51.002;4.356;2023-02-03T03:03:10;10.70;99.90
22035;DHT22;11181;51.002;4.356;2023-02-03T03:05:38;10.70;99.90
22035;DHT22;11181;51.002;4.356;2023-02-03T03:08:08;10.60;99.90
22035;DHT22;11181;51.002;4.356;2023-02-03T03:10:39;10.60;99.90
22035;DHT22;11181;51.002;4.356;2023-02-03T03:13:10;10.70;99.90
22035;DHT22;11181;51.002;4.356;2023-02-03T03:15:40;10.70;99.90
22035;DHT22;11181;51.002;4.356;2023-02-03T03:18:12;10.70;99.90
22035;DHT22;11181;51.002;4.356;2023-02-03T03:20:41;10.70;99.90
22035;DHT22;11181;51.002;4.356;2023-02-03T03:23:12;10.80;99.90
22035;DHT22;11181;51.002;4.356;2023-02-03T03:25:45;10.80;99.90
22035;DHT22;11181;51.002;4.356;2023-02-03T03:28:14;10.80;99.90
22035;DHT22;11181;51.002;4.356;2023-02-03T03:30:43;10.80;99.90
22035;DHT22;11181;51.002;4.356;2023-02-03T03:33:11;10.70;99.90
22035;DHT22;11181;51.002;4.356;2023-02-03T03:35:41;10.70;99.90
22035;DHT22;11181;51.002;4.356;2023-02-03T03:38:14;10.80;99.90
22035;DHT22;11181;51.002;4.356;2023-02-03T03:40:47;10.70;99.90
22035;DHT22;11181;51.002;4.356;2023-02-03T03:43:18;10.80;99.90
22035;DHT22;11181;51.002;4.356;2023-02-03T03:45:51;10.70;99.90
22035;DHT22;11181;51.002;4.356;2023-02-03T03:48:26;10.70;99.90
22035;DHT22;11181;51.002;4.356;2023-02-03T03:50:58;10.70;99.90
22035;DHT22;11181;51.002;4.356;2023-02-03T03:53:29;10.80;99.90
22035;DHT22;11181;51.002;4.356;2023-02-03T03:55:58;10.70;99.90
22035;DHT22;11181;51.002;4.356;2023-02-03T03:58:29;10.70;99.90
22035;DHT22;11181;51.002;4.356;2023-02-03T04:01:00;10.70;99.90
22035;DHT22;11181;51.002;4.356;2023-02-03T04:03:32;10.70;99.90
22035;DHT22;11181;51.002;4.356;2023-02-03T04:06:01;10.70;99.90
22035;DHT22;11181;51.002;4.356;2023-02-03T04:08:28;10.70;99.90
22035;DHT22;11181;51.002;4.356;2023-02-03T04:10:55;10.70;99.90
22035;DHT22;11181;51.002;4.356;2023-02-03T04:13:21;10.70;99.90
22035;DHT22;11181;51.002;4.356;2023-02-03T04:15:48;10.70;99.90
22035;DHT22;11181;51.002;4.356;2023-02-03T04:18:15;10.80;99.90
22035;DHT22;11181;51.002;4.356;2023-02-03T04:20:44;10.80;99.90
22035;DHT22;11181;51.002;4.356;2023-02-03T04:23:11;10.80;99.90
22035;DHT22;11181;51.002;4.356;2023-02-03T04:25:38;10.80;99.90
22035;DHT22;11181;51.002;4.356;2023-02-03T04:28:05;10.80;99.90
22035;DHT22;11181;51.002;4.356;2023-02-03T04:30:32;10.70;99.90
22035;DHT22;11181;51.002;4.356;2023-02-03T04:32:59;10.70;99.90
22035;DHT22;11181;51.002;4.356;2023-02-03T04:35:26;10.70;99.90
22035;DHT22;11181;51.002;4.356;2023-02-03T04:37:54;10.70;99.90
22035;DHT22;11181;51.002;4.356;2023-02-03T04:40:21;10.70;99.90
22035;DHT22;11181;51.002;4.356;2023-02-03T04:42:48;10.60;99.90
22035;DHT22;11181;51.002;4.356;2023-02-03T04:45:15;10.70;99.90
22035;DHT22;11181;51.002;4.356;2023-02-03T04:47:42;10.70;99.90
22035;DHT22;11181;51.002;4.356;2023-02-03T04:50:09;10.70;99.90
22035;DHT22;11181;51.002;4.356;2023-02-03T04:52:36;10.70;99.90
22035;DHT22;11181;51.002;4.356;2023-02-03T04:55:05;10.70;99.90
22035;DHT22;11181;51.002;4.356;2023-02-03T04:57:32;10.70;99.90
22035;DHT22;11181;51.002;4.356;2023-02-03T04:59:59;10.70;99.90
22035;DHT22;11181;51.002;4.356;2023-02-03T05:02:26;10.80;99.90
22035;DHT22;11181;51.002;4.356;2023-02-03T05:04:53;10.80;99.90
22035;DHT22;11181;51.002;4.356;2023-02-03T05:07:20;10.80;99.90
22035;DHT22;11181;51.002;4.356;2023-02-03T05:09:47;10.70;99.90
22035;DHT22;11181;51.002;4.356;2023-02-03T05:12:15;10.70;99.90
22035;DHT22;11181;51.002;4.356;2023-02-03T05:14:42;10.70;99.90
22035;DHT22;11181;51.002;4.356;2023-02-03T05:17:09;10.70;99.90
22035;DHT22;11181;51.002;4.356;2023-02-03T05:19:36;10.70;99.90
22035;DHT22;11181;51.002;4.356;2023-02-03T05:22:02;10.60;99.90
22035;DHT22;11181;51.002;4.356;2023-02-03T05:24:29;10.60;99.90
22035;DHT22;11181;51.002;4.356;2023-02-03T05:26:56;10.60;99.90
22035;DHT22;11181;51.002;4.356;2023-02-03T05:29:25;10.60;99.90
22035;DHT22;11181;51.002;4.356;2023-02-03T05:31:51;10.60;99.90
22035;DHT22;11181;51.002;4.356;2023-02-03T05:34:18;10.50;99.90
22035;DHT22;11181;51.002;4.356;2023-02-03T05:36:45;10.50;99.90
22035;DHT22;11181;51.002;4.356;2023-02-03T05:39:12;10.50;99.90
22035;DHT22;11181;51.002;4.356;2023-02-03T05:41:39;10.50;99.90
22035;DHT22;11181;51.002;4.356;2023-02-03T05:44:17;10.50;99.90
22035;DHT22;11181;51.002;4.356;2023-02-03T05:46:46;10.50;99.90
22035;DHT22;11181;51.002;4.356;2023-02-03T05:49:13;10.50;99.90
22035;DHT22;11181;51.002;4.356;2023-02-03T05:51:40;10.50;99.90
22035;DHT22;11181;51.002;4.356;2023-02-03T05:54:08;10.40;99.90
22035;DHT22;11181;51.002;4.356;2023-02-03T05:56:35;10.40;99.90
22035;DHT22;11181;51.002;4.356;2023-02-03T05:59:02;10.50;99.90
22035;DHT22;11181;51.002;4.356;2023-02-03T06:01:29;10.50;99.90
22035;DHT22;11181;51.002;4.356;2023-02-03T06:03:58;10.50;99.90
22035;DHT22;11181;51.002;4.356;2023-02-03T06:06:25;10.50;99.90
22035;DHT22;11181;51.002;4.356;2023-02-03T06:08:57;10.60;99.90
22035;DHT22;11181;51.002;4.356;2023-02-03T06:11:24;10.70;99.90
22035;DHT22;11181;51.002;4.356;2023-02-03T06:13:51;10.70;99.90
22035;DHT22;11181;51.002;4.356;2023-02-03T06:16:18;10.70;99.90
22035;DHT22;11181;51.002;4.356;2023-02-03T06:18:45;10.80;99.90
22035;DHT22;11181;51.002;4.356;2023-02-03T06:21:13;10.70;99.90
22035;DHT22;11181;51.002;4.356;2023-02-03T06:23:40;10.70;99.90
22035;DHT22;11181;51.002;4.356;2023-02-03T06:26:07;10.70;99.90
22035;DHT22;11181;51.002;4.356;2023-02-03T06:28:34;10.70;99.90
22035;DHT22;11181;51.002;4.356;2023-02-03T06:31:03;10.70;99.90
22035;DHT22;11181;51.002;4.356;2023-02-03T06:33:30;10.70;99.90
22035;DHT22;11181;51.002;4.356;2023-02-03T06:35:57;10.70;99.90
22035;DHT22;11181;51.002;4.356;2023-02-03T06:38:25;10.60;99.90
22035;DHT22;11181;51.002;4.356;2023-02-03T06:40:55;10.60;99.90
22035;DHT22;11181;51.002;4.356;2023-02-03T06:43:22;10.50;99.90
22035;DHT22;11181;51.002;4.356;2023-02-03T06:45:49;10.60;99.90
22035;DHT22;11181;51.002;4.356;2023-02-03T06:48:16;10.60;99.90
22035;DHT22;11181;51.002;4.356;2023-02-03T06:50:43;10.60;99.90
22035;DHT22;11181;51.002;4.356;2023-02-03T06:53:11;10.60;99.90
22035;DHT22;11181;51.002;4.356;2023-02-03T06:55:39;10.60;99.90
22035;DHT22;11181;51.002;4.356;2023-02-03T06:58:06;10.50;99.90
22035;DHT22;11181;51.002;4.356;2023-02-03T07:00:33;10.50;99.90
22035;DHT22;11181;51.002;4.356;2023-02-03T07:03:00;10.60;99.90
22035;DHT22;11181;51.002;4.356;2023-02-03T07:05:27;10.60;99.90
22035;DHT22;11181;51.002;4.356;2023-02-03T07:07:55;10.70;99.90
22035;DHT22;11181;51.002;4.356;2023-02-03T07:10:22;10.70;99.90
22035;DHT22;11181;51.002;4.356;2023-02-03T07:12:50;10.70;99.90
22035;DHT22;11181;51.002;4.356;2023-02-03T07:15:17;10.70;99.90
22035;DHT22;11181;51.002;4.356;2023-02-03T07:17:46;10.60;99.90
22035;DHT22;11181;51.002;4.356;2023-02-03T07:20:19;10.60;99.90
22035;DHT22;11181;51.002;4.356;2023-02-03T07:22:51;10.70;99.90
22035;DHT22;11181;51.002;4.356;2023-02-03T07:25:18;10.70;99.90
22035;DHT22;11181;51.002;4.356;2023-02-03T07:27:45;10.60;99.90
22035;DHT22;11181;51.002;4.356;2023-02-03T07:30:14;10.60;99.90
22035;DHT22;11181;51.002;4.356;2023-02-03T07:32:45;10.60;99.90
22035;DHT22;11181;51.002;4.356;2023-02-03T07:35:12;10.50;99.90
22035;DHT22;11181;51.002;4.356;2023-02-03T07:37:40;10.50;99.90
22035;DHT22;11181;51.002;4.356;2023-02-03T07:40:08;10.60;99.90
22035;DHT22;11181;51.002;4.356;2023-02-03T07:42:35;10.60;99.90
22035;DHT22;11181;51.002;4.356;2023-02-03T07:45:08;10.60;99.90
22035;DHT22;11181;51.002;4.356;2023-02-03T07:47:37;10.60;99.90
22035;DHT22;11181;51.002;4.356;2023-02-03T07:50:04;10.60;99.90
22035;DHT22;11181;51.002;4.356;2023-02-03T07:52:31;10.60;99.90
22035;DHT22;11181;51.002;4.356;2023-02-03T07:54:58;10.60;99.90
22035;DHT22;11181;51.002;4.356;2023-02-03T07:57:26;10.60;99.90
22035;DHT22;11181;51.002;4.356;2023-02-03T07:59:53;10.60;99.90
22035;DHT22;11181;51.002;4.356;2023-02-03T08:02:20;10.60;99.90
22035;DHT22;11181;51.002;4.356;2023-02-03T08:04:48;10.70;99.90
22035;DHT22;11181;51.002;4.356;2023-02-03T08:07:15;10.70;99.90
22035;DHT22;11181;51.002;4.356;2023-02-03T08:09:42;10.70;99.90
22035;DHT22;11181;51.002;4.356;2023-02-03T08:12:09;10.70;99.90
22035;DHT22;11181;51.002;4.356;2023-02-03T08:14:36;10.70;99.90
22035;DHT22;11181;51.002;4.356;2023-02-03T08:17:03;10.80;99.90
22035;DHT22;11181;51.002;4.356;2023-02-03T08:19:30;10.80;99.90
22035;DHT22;11181;51.002;4.356;2023-02-03T08:21:59;10.80;99.90
22035;DHT22;11181;51.002;4.356;2023-02-03T08:24:26;10.80;99.90
22035;DHT22;11181;51.002;4.356;2023-02-03T08:26:53;10.70;99.90
22035;DHT22;11181;51.002;4.356;2023-02-03T08:29:20;10.70;99.90
22035;DHT22;11181;51.002;4.356;2023-02-03T08:31:47;10.70;99.90
22035;DHT22;11181;51.002;4.356;2023-02-03T08:34:14;10.70;99.90
22035;DHT22;11181;51.002;4.356;2023-02-03T08:36:41;10.80;99.90
22035;DHT22;11181;51.002;4.356;2023-02-03T08:39:10;10.80;99.90
22035;DHT22;11181;51.002;4.356;2023-02-03T08:41:37;10.80;99.90
22035;DHT22;11181;51.002;4.356;2023-02-03T08:44:04;10.80;99.90
22035;DHT22;11181;51.002;4.356;2023-02-03T08:46:31;10.90;99.90
22035;DHT22;11181;51.002;4.356;2023-02-03T08:48:59;10.90;99.90
22035;DHT22;11181;51.002;4.356;2023-02-03T08:51:27;10.90;99.90
22035;DHT22;11181;51.002;4.356;2023-02-03T08:53:54;10.90;99.90
22035;DHT22;11181;51.002;4.356;2023-02-03T08:56:23;10.90;99.90
22035;DHT22;11181;51.002;4.356;2023-02-03T08:58:51;10.90;99.90
22035;DHT22;11181;51.002;4.356;2023-02-03T09:01:18;11.00;99.90
22035;DHT22;11181;51.002;4.356;2023-02-03T09:03:45;11.00;99.90
22035;DHT22;11181;51.002;4.356;2023-02-03T09:06:12;11.00;99.90
22035;DHT22;11181;51.002;4.356;2023-02-03T09:08:41;11.00;99.90
22035;DHT22;11181;51.002;4.356;2023-02-03T09:11:09;11.00;99.90
22035;DHT22;11181;51.002;4.356;2023-02-03T09:13:37;11.00;99.90
22035;DHT22;11181;51.002;4.356;2023-02-03T09:16:05;11.00;99.90
22035;DHT22;11181;51.002;4.356;2023-02-03T09:18:32;11.10;99.90
22035;DHT22;11181;51.002;4.356;2023-02-03T09:21:00;11.10;99.90
22035;DHT22;11181;51.002;4.356;2023-02-03T09:23:27;11.10;99.90
22035;DHT22;11181;51.002;4.356;2023-02-03T09:25:54;11.10;99.90
22035;DHT22;11181;51.002;4.356;2023-02-03T09:28:21;11.10;99.90
22035;DHT22;11181;51.002;4.356;2023-02-03T09:30:50;11.10;99.90
22035;DHT22;11181;51.002;4.356;2023-02-03T09:33:17;11.10;99.90
22035;DHT22;11181;51.002;4.356;2023-02-03T09:35:50;11.10;99.90
22035;DHT22;11181;51.002;4.356;2023-02-03T09:38:18;11.10;99.90
22035;DHT22;11181;51.002;4.356;2023-02-03T09:40:46;11.20;99.90
22035;DHT22;11181;51.002;4.356;2023-02-03T09:43:28;11.20;99.90
22035;DHT22;11181;51.002;4.356;2023-02-03T09:46:02;11.20;99.90
22035;DHT22;11181;51.002;4.356;2023-02-03T09:48:35;11.20;99.90
22035;DHT22;11181;51.002;4.356;2023-02-03T09:51:03;11.20;99.90
22035;DHT22;11181;51.002;4.356;2023-02-03T09:53:35;11.20;99.90
22035;DHT22;11181;51.002;4.356;2023-02-03T09:56:05;11.20;99.90
22035;DHT22;11181;51.002;4.356;2023-02-03T09:58:33;11.30;99.90
22035;DHT22;11181;51.002;4.356;2023-02-03T10:01:02;11.30;99.90
22035;DHT22;11181;51.002;4.356;2023-02-03T10:03:37;11.40;99.90
22035;DHT22;11181;51.002;4.356;2023-02-03T10:06:13;11.50;99.90
22035;DHT22;11181;51.002;4.356;2023-02-03T10:08:55;11.50;99.90
22035;DHT22;11181;51.002;4.356;2023-02-03T10:11:35;11.50;99.90
22035;DHT22;11181;51.002;4.356;2023-02-03T10:14:11;11.60;99.90
22035;DHT22;11181;51.002;4.356;2023-02-03T10:16:55;11.70;99.90
22035;DHT22;11181;51.002;4.356;2023-02-03T10:19:36;11.80;99.90
22035;DHT22;11181;51.002;4.356;2023-02-03T10:22:07;11.80;99.90
22035;DHT22;11181;51.002;4.356;2023-02-03T10:24:41;11.90;99.90
22035;DHT22;11181;51.002;4.356;2023-02-03T10:27:15;11.90;99.90
22035;DHT22;11181;51.002;4.356;2023-02-03T10:29:42;11.80;99.90
22035;DHT22;11181;51.002;4.356;2023-02-03T10:32:11;11.80;99.90
22035;DHT22;11181;51.002;4.356;2023-02-03T10:34:39;11.80;99.90
22035;DHT22;11181;51.002;4.356;2023-02-03T10:37:16;11.80;99.90
22035;DHT22;11181;51.002;4.356;2023-02-03T10:39:50;11.80;99.90
22035;DHT22;11181;51.002;4.356;2023-02-03T10:42:17;11.80;99.90
22035;DHT22;11181;51.002;4.356;2023-02-03T10:44:49;11.80;99.90
22035;DHT22;11181;51.002;4.356;2023-02-03T10:47:27;11.80;99.90
22035;DHT22;11181;51.002;4.356;2023-02-03T10:49:56;11.80;99.90
22035;DHT22;11181;51.002;4.356;2023-02-03T10:52:26;11.80;99.90
22035;DHT22;11181;51.002;4.356;2023-02-03T10:54:53;11.70;99.90
22035;DHT22;11181;51.002;4.356;2023-02-03T10:57:21;11.70;99.90
22035;DHT22;11181;51.002;4.356;2023-02-03T10:59:48;11.70;99.90
22035;DHT22;11181;51.002;4.356;2023-02-03T11:02:24;11.70;99.90
22035;DHT22;11181;51.002;4.356;2023-02-03T11:05:19;11.80;99.90
22035;DHT22;11181;51.002;4.356;2023-02-03T11:07:46;11.90;99.90
22035;DHT22;11181;51.002;4.356;2023-02-03T11:10:35;11.90;99.90
22035;DHT22;11181;51.002;4.356;2023-02-03T11:13:12;12.00;99.90
22035;DHT22;11181;51.002;4.356;2023-02-03T11:15:43;12.00;99.90
22035;DHT22;11181;51.002;4.356;2023-02-03T11:18:44;12.10;99.90
22035;DHT22;11181;51.002;4.356;2023-02-03T11:21:15;12.10;99.90
22035;DHT22;11181;51.002;4.356;2023-02-03T11:23:49;12.10;99.90
22035;DHT22;11181;51.002;4.356;2023-02-03T11:26:20;12.10;99.90
22035;DHT22;11181;51.002;4.356;2023-02-03T11:28:49;12.10;99.90
22035;DHT22;11181;51.002;4.356;2023-02-03T11:31:23;12.00;99.90
22035;DHT22;11181;51.002;4.356;2023-02-03T11:33:58;12.00;99.90
22035;DHT22;11181;51.002;4.356;2023-02-03T11:36:28;11.90;99.90
22035;DHT22;11181;51.002;4.356;2023-02-03T11:39:25;11.80;99.90
22035;DHT22;11181;51.002;4.356;2023-02-03T11:41:53;11.80;99.90
22035;DHT22;11181;51.002;4.356;2023-02-03T11:44:23;11.90;99.90
22035;DHT22;11181;51.002;4.356;2023-02-03T11:46:53;11.90;99.90
22035;DHT22;11181;51.002;4.356;2023-02-03T11:49:52;12.00;99.90
22035;DHT22;11181;51.002;4.356;2023-02-03T11:55:45;11.90;99.90
22035;DHT22;11181;51.002;4.356;2023-02-03T11:58:36;11.90;99.90
22035;DHT22;11181;51.002;4.356;2023-02-03T12:01:14;11.90;99.90
22035;DHT22;11181;51.002;4.356;2023-02-03T12:04:00;11.90;99.90
22035;DHT22;11181;51.002;4.356;2023-02-03T12:06:54;11.90;99.90
22035;DHT22;11181;51.002;4.356;2023-02-03T12:09:32;11.90;99.90
22035;DHT22;11181;51.002;4.356;2023-02-03T12:14:55;12.10;99.90
22035;DHT22;11181;51.002;4.356;2023-02-03T12:17:48;12.10;99.90
22035;DHT22;11181;51.002;4.356;2023-02-03T12:20:34;12.20;99.90
22035;DHT22;11181;51.002;4.356;2023-02-03T12:23:13;12.20;99.90
22035;DHT22;11181;51.002;4.356;2023-02-03T12:25:57;12.30;99.90
22035;DHT22;11181;51.002;4.356;2023-02-03T12:28:38;12.40;99.90
22035;DHT22;11181;51.002;4.356;2023-02-03T12:31:10;12.40;99.90
22035;DHT22;11181;51.002;4.356;2023-02-03T12:33:42;12.40;99.90
22035;DHT22;11181;51.002;4.356;2023-02-03T12:36:14;12.30;99.90
22035;DHT22;11181;51.002;4.356;2023-02-03T12:38:48;12.40;99.90
22035;DHT22;11181;51.002;4.356;2023-02-03T12:41:20;12.40;99.90
22035;DHT22;11181;51.002;4.356;2023-02-03T12:43:51;12.40;99.90
22035;DHT22;11181;51.002;4.356;2023-02-03T12:46:23;12.40;99.90
22035;DHT22;11181;51.002;4.356;2023-02-03T12:48:55;12.40;99.90
22035;DHT22;11181;51.002;4.356;2023-02-03T12:51:32;12.40;99.90
22035;DHT22;11181;51.002;4.356;2023-02-03T12:54:09;12.50;99.90
22035;DHT22;11181;51.002;4.356;2023-02-03T12:56:41;12.60;99.90
22035;DHT22;11181;51.002;4.356;2023-02-03T12:59:12;12.60;99.90
22035;DHT22;11181;51.002;4.356;2023-02-03T13:01:46;12.60;99.90
22035;DHT22;11181;51.002;4.356;2023-02-03T13:04:23;12.60;99.90
22035;DHT22;11181;51.002;4.356;2023-02-03T13:06:59;12.60;99.90
22035;DHT22;11181;51.002;4.356;2023-02-03T13:09:33;12.60;99.90
22035;DHT22;11181;51.002;4.356;2023-02-03T13:12:06;12.60;99.90
22035;DHT22;11181;51.002;4.356;2023-02-03T13:14:38;12.60;99.90
22035;DHT22;11181;51.002;4.356;2023-02-03T13:17:12;12.50;99.90
22035;DHT22;11181;51.002;4.356;2023-02-03T13:19:44;12.60;99.90
22035;DHT22;11181;51.002;4.356;2023-02-03T13:22:13;12.60;99.90
22035;DHT22;11181;51.002;4.356;2023-02-03T13:24:46;12.60;99.90
22035;DHT22;11181;51.002;4.356;2023-02-03T13:27:32;12.70;99.90
22035;DHT22;11181;51.002;4.356;2023-02-03T13:30:18;12.70;99.90
22035;DHT22;11181;51.002;4.356;2023-02-03T13:35:54;12.60;99.90
22035;DHT22;11181;51.002;4.356;2023-02-03T13:38:53;12.70;99.90
22035;DHT22;11181;51.002;4.356;2023-02-03T13:41:35;12.60;99.90
22035;DHT22;11181;51.002;4.356;2023-02-03T13:44:07;12.60;99.90
22035;DHT22;11181;51.002;4.356;2023-02-03T13:46:38;12.50;99.90
22035;DHT22;11181;51.002;4.356;2023-02-03T13:49:06;12.40;99.90
22035;DHT22;11181;51.002;4.356;2023-02-03T13:51:36;12.40;99.90
22035;DHT22;11181;51.002;4.356;2023-02-03T13:54:13;12.30;99.90
22035;DHT22;11181;51.002;4.356;2023-02-03T13:56:53;12.30;99.90
22035;DHT22;11181;51.002;4.356;2023-02-03T13:59:29;12.50;99.90
22035;DHT22;11181;51.002;4.356;2023-02-03T14:02:30;12.60;99.90
22035;DHT22;11181;51.002;4.356;2023-02-03T14:07:50;12.50;99.90
22035;DHT22;11181;51.002;4.356;2023-02-03T14:10:20;12.60;99.90
22035;DHT22;11181;51.002;4.356;2023-02-03T14:12:56;12.70;99.90
22035;DHT22;11181;51.002;4.356;2023-02-03T14:15:33;12.60;99.90
22035;DHT22;11181;51.002;4.356;2023-02-03T14:18:29;12.60;99.90
22035;DHT22;11181;51.002;4.356;2023-02-03T14:21:18;12.60;99.90
22035;DHT22;11181;51.002;4.356;2023-02-03T14:23:57;12.60;99.90
22035;DHT22;11181;51.002;4.356;2023-02-03T14:26:38;12.50;99.90
22035;DHT22;11181;51.002;4.356;2023-02-03T14:29:09;12.60;99.90
22035;DHT22;11181;51.002;4.356;2023-02-03T14:31:53;12.40;99.90
22035;DHT22;11181;51.002;4.356;2023-02-03T14:34:37;12.30;99.90
22035;DHT22;11181;51.002;4.356;2023-02-03T14:37:23;12.30;99.90
22035;DHT22;11181;51.002;4.356;2023-02-03T14:40:16;12.20;99.90
22035;DHT22;11181;51.002;4.356;2023-02-03T14:43:20;12.30;99.90
22035;DHT22;11181;51.002;4.356;2023-02-03T14:49:09;12.30;99.90
22035;DHT22;11181;51.002;4.356;2023-02-03T14:51:50;12.40;99.90
22035;DHT22;11181;51.002;4.356;2023-02-03T14:54:38;12.30;99.90
22035;DHT22;11181;51.002;4.356;2023-02-03T14:57:20;12.40;99.90
22035;DHT22;11181;51.002;4.356;2023-02-03T14:59:56;12.50;99.90
22035;DHT22;11181;51.002;4.356;2023-02-03T15:02:25;12.50;99.90
22035;DHT22;11181;51.002;4.356;2023-02-03T15:08:00;12.70;99.90
22035;DHT22;11181;51.002;4.356;2023-02-03T15:13:22;12.70;99.90
22035;DHT22;11181;51.002;4.356;2023-02-03T15:15:52;12.80;99.90
22035;DHT22;11181;51.002;4.356;2023-02-03T15:18:26;12.60;99.90
22035;DHT22;11181;51.002;4.356;2023-02-03T15:20:54;12.60;99.90
22035;DHT22;11181;51.002;4.356;2023-02-03T15:23:25;12.60;99.90
22035;DHT22;11181;51.002;4.356;2023-02-03T15:25:54;12.70;99.90
22035;DHT22;11181;51.002;4.356;2023-02-03T15:28:22;12.80;99.90
22035;DHT22;11181;51.002;4.356;2023-02-03T15:30:54;12.80;99.90
22035;DHT22;11181;51.002;4.356;2023-02-03T15:33:23;12.80;99.90
22035;DHT22;11181;51.002;4.356;2023-02-03T15:35:53;12.80;99.90
22035;DHT22;11181;51.002;4.356;2023-02-03T15:38:26;12.80;99.90
22035;DHT22;11181;51.002;4.356;2023-02-03T15:40:54;12.80;99.90
22035;DHT22;11181;51.002;4.356;2023-02-03T15:43:27;12.70;99.90
22035;DHT22;11181;51.002;4.356;2023-02-03T15:46:01;12.80;99.90
22035;DHT22;11181;51.002;4.356;2023-02-03T15:48:33;12.80;99.90
22035;DHT22;11181;51.002;4.356;2023-02-03T15:51:06;12.70;99.90
22035;DHT22;11181;51.002;4.356;2023-02-03T15:53:43;12.80;99.90
22035;DHT22;11181;51.002;4.356;2023-02-03T15:56:22;12.70;99.90
22035;DHT22;11181;51.002;4.356;2023-02-03T15:58:52;12.90;99.90
22035;DHT22;11181;51.002;4.356;2023-02-03T16:01:21;12.80;99.90
22035;DHT22;11181;51.002;4.356;2023-02-03T16:03:51;12.80;99.90
22035;DHT22;11181;51.002;4.356;2023-02-03T16:06:23;12.70;99.90
22035;DHT22;11181;51.002;4.356;2023-02-03T16:08:54;12.70;99.90
22035;DHT22;11181;51.002;4.356;2023-02-03T16:11:27;12.70;99.90
22035;DHT22;11181;51.002;4.356;2023-02-03T16:13:55;12.80;99.90
22035;DHT22;11181;51.002;4.356;2023-02-03T16:16:26;12.80;99.90
22035;DHT22;11181;51.002;4.356;2023-02-03T16:18:55;12.80;99.90
22035;DHT22;11181;51.002;4.356;2023-02-03T16:21:34;12.70;99.90